^^
Station Historical Data
Daily Summary for November 15, 2017 Units:  Metric    English   Both
« Previous Day
Next Day »
Daily Weekly Monthly Yearly Custom
  High: Low: Average:
Temperature: 19.1 °C 9 °C 11.8 °C
Dew Point: 5.7 °C -0.3 °C 3.9 °C
Humidity: 79% 29% 60%
Wind Speed: 43.6km/h 11.1km/h 27km/h
Wind Gust: 49.9km/h - -
Wind- - SSW
Pressure: 1020.5 hPa 1012.8 hPa -
Precipitation: 0 mm    
Historical Graphs
 
 
Tabular Data for November 15, 2017
Time Temperature Dew Point Pressure Wind Wind Speed Wind Gust Humidity Rainfall Rate (Hourly) solar Conditions
00:04 11.6 °C 5 °C 1012.8 hPa SSW 28.8 km/h 30.6 km/h 64% 0 mm 0.0 W/m2
00:09 11.6 °C 5.2 °C 1012.8 hPa SSW 27.4 km/h 29 km/h 65% 0 mm 0.0 W/m2
00:14 11.6 °C 5 °C 1012.8 hPa South 20.9 km/h 30.6 km/h 64% 0 mm 0.0 W/m2
00:19 11.6 °C 5 °C 1012.8 hPa South 22.7 km/h 32.2 km/h 64% 0 mm 0.0 W/m2
00:24 11.6 °C 4.6 °C 1012.8 hPa South 37 km/h 43.5 km/h 62% 0 mm 0.0 W/m2
00:29 11.5 °C 4.7 °C 1013.1 hPa SSE 30.6 km/h 40.2 km/h 63% 0 mm 0.0 W/m2
00:34 11.4 °C 4.8 °C 1012.8 hPa South 40.4 km/h 40.4 km/h 64% 0 mm 0.0 W/m2
00:39 11.3 °C 4.7 °C 1012.8 hPa South 25.9 km/h 38.6 km/h 64% 0 mm 0.0 W/m2
00:44 11.3 °C 4.7 °C 1012.8 hPa SSW 30.6 km/h 38.6 km/h 64% 0 mm 0.0 W/m2
00:54 11.2 °C 4 °C 1012.8 hPa SSW 25.9 km/h 38.6 km/h 61% 0 mm 0.0 W/m2
00:59 11.2 °C 3.7 °C 1012.8 hPa SSW 16.3 km/h 41.8 km/h 60% 0 mm 0.0 W/m2
01:09 11 °C 3.8 °C 1013.1 hPa South 24.1 km/h 33.8 km/h 61% 0 mm 0.0 W/m2
01:14 10.9 °C 3.7 °C 1013.1 hPa South 24.1 km/h 38.6 km/h 61% 0 mm 0.0 W/m2
01:24 10.8 °C 3.8 °C 1013.1 hPa SSW 32 km/h 35.4 km/h 62% 0 mm 0.0 W/m2
01:29 10.7 °C 3.7 °C 1013.4 hPa SSW 32 km/h 40.2 km/h 62% 0 mm 0.0 W/m2
01:34 10.7 °C 3.7 °C 1013.4 hPa South 27.4 km/h 29 km/h 62% 0 mm 0.0 W/m2
01:44 10.5 °C 3.8 °C 1013.4 hPa South 24.1 km/h 33.8 km/h 63% 0 mm 0.0 W/m2
01:49 10.4 °C 3.7 °C 1013.4 hPa South 30.6 km/h 32.2 km/h 63% 0 mm 0.0 W/m2
01:59 10.4 °C 3.7 °C 1013.1 hPa South 25.9 km/h 35.4 km/h 63% 0 mm 0.0 W/m2
02:04 10.3 °C 3.6 °C 1013.1 hPa South 32 km/h 37 km/h 63% 0 mm 0.0 W/m2
02:09 10.3 °C 3.6 °C 1013.1 hPa SSW 25.9 km/h 35.4 km/h 63% 0 mm 0.0 W/m2
02:14 10.3 °C 3.6 °C 1013.4 hPa SSW 35.2 km/h 40.2 km/h 63% 0 mm 0.0 W/m2
02:19 10.2 °C 3.5 °C 1013.4 hPa South 32 km/h 37 km/h 63% 0 mm 0.0 W/m2
02:24 10.2 °C 3.2 °C 1013.4 hPa South 43.6 km/h 43.6 km/h 62% 0 mm 0.0 W/m2
02:34 10.1 °C 3.4 °C 1013.4 hPa South 32 km/h 35.4 km/h 63% 0 mm 0.0 W/m2
02:39 10.1 °C 3.6 °C 1013.4 hPa SSW 25.9 km/h 29 km/h 64% 0 mm 0.0 W/m2
02:44 10 °C 3.5 °C 1013.4 hPa South 40.4 km/h 41.8 km/h 64% 0 mm 0.0 W/m2
02:49 9.9 °C 3.4 °C 1013.4 hPa SSW 25.9 km/h 37 km/h 64% 0 mm 0.0 W/m2
02:54 9.8 °C 3.5 °C 1013.4 hPa SSW 28.8 km/h 46.7 km/h 65% 0 mm 0.0 W/m2
03:04 9.7 °C 3.9 °C 1013.4 hPa SSW 30.6 km/h 45.1 km/h 67% 0 mm 0.0 W/m2
03:09 9.6 °C 4 °C 1013.4 hPa SSW 41.7 km/h 43.5 km/h 68% 0 mm 0.0 W/m2
03:14 9.6 °C 4 °C 1013.4 hPa SSW 32 km/h 48.3 km/h 68% 0 mm 0.0 W/m2
03:24 9.4 °C 3.8 °C 1013.4 hPa SSW 35.2 km/h 43.5 km/h 68% 0 mm 0.0 W/m2
03:29 9.4 °C 3.8 °C 1013.4 hPa SSW 25.9 km/h 43.5 km/h 68% 0 mm 0.0 W/m2
03:39 9.3 °C 3.9 °C 1013.8 hPa SSW 32 km/h 43.5 km/h 69% 0 mm 0.0 W/m2
03:44 9.3 °C 3.9 °C 1013.8 hPa South 30.6 km/h 38.6 km/h 69% 0 mm 0.0 W/m2
03:49 9.2 °C 4 °C 1013.8 hPa South 19.5 km/h 43.5 km/h 70% 0 mm 0.0 W/m2
03:59 9.2 °C 4.2 °C 1013.8 hPa South 35.2 km/h 35.4 km/h 71% 0 mm 0.0 W/m2
04:04 9.1 °C 4.1 °C 1013.8 hPa South 28.8 km/h 33.8 km/h 71% 0 mm 0.0 W/m2
04:09 9.1 °C 4.3 °C 1013.8 hPa South 28.8 km/h 33.8 km/h 72% 0 mm 0.0 W/m2
04:14 9.1 °C 4.3 °C 1014.1 hPa South 28.8 km/h 30.6 km/h 72% 0 mm 0.0 W/m2
04:24 9.1 °C 4.3 °C 1014.4 hPa South 27.4 km/h 37 km/h 72% 0 mm 0.0 W/m2
04:29 9.1 °C 4.3 °C 1014.4 hPa South 20.9 km/h 30.6 km/h 72% 0 mm 0.0 W/m2
04:34 9.1 °C 4.5 °C 1014.4 hPa South 20.9 km/h 35.4 km/h 73% 0 mm 0.0 W/m2
04:39 9.1 °C 4.5 °C 1014.4 hPa SSW 25.9 km/h 38.6 km/h 73% 0 mm 0.0 W/m2
04:44 9.1 °C 4.5 °C 1014.4 hPa SSW 38.5 km/h 40.2 km/h 73% 0 mm 0.0 W/m2
04:49 9.1 °C 4.5 °C 1014.8 hPa South 25.9 km/h 35.4 km/h 73% 0 mm 0.0 W/m2
04:59 9.1 °C 4.7 °C 1014.8 hPa SSW 27.4 km/h 40.2 km/h 74% 0 mm 0.0 W/m2
05:04 9.1 °C 4.7 °C 1015.1 hPa SSW 27.4 km/h 33.8 km/h 74% 0 mm 0.0 W/m2
05:19 9 °C 4.8 °C 1015.1 hPa South 22.7 km/h 32.2 km/h 75% 0 mm 0.0 W/m2
05:25 9.1 °C 4.9 °C 1015.1 hPa SSW 20.9 km/h 27.4 km/h 75% 0 mm 0.0 W/m2
05:30 9.1 °C 4.7 °C 1015.1 hPa SSW 22.7 km/h 29 km/h 74% 0 mm 0.0 W/m2
05:39 9.1 °C 4.9 °C 1015.5 hPa SSW 20.9 km/h 30.6 km/h 75% 0 mm 0.0 W/m2
05:44 9.1 °C 5.7 °C 1015.8 hPa South 22.7 km/h 27.4 km/h 79% 0 mm 0.0 W/m2
05:49 9.1 °C 4.9 °C 1015.8 hPa SSW 19.5 km/h 29 km/h 75% 0 mm 0.0 W/m2
05:55 9.1 °C 4.9 °C 1015.8 hPa SSW 28.8 km/h 29 km/h 75% 0 mm 5.0 W/m2
06:01 9.1 °C 4.9 °C 1016.1 hPa SSW 22.7 km/h 33.8 km/h 75% 0 mm 11.0 W/m2
06:10 9.2 °C 4.8 °C 1016.1 hPa SSW 27.4 km/h 27.4 km/h 74% 0 mm 19.0 W/m2
06:15 9.4 °C 4.8 °C 1016.1 hPa SSW 30.6 km/h 33.8 km/h 73% 0 mm 49.0 W/m2
06:21 9.4 °C 5.2 °C 1016.1 hPa SSW 14.3 km/h 25.7 km/h 75% 0 mm 74.0 W/m2
06:27 9.6 °C 5.2 °C 1016.1 hPa SSW 28.8 km/h 37 km/h 74% 0 mm 149.0 W/m2
06:35 9.7 °C 5.7 °C 1016.5 hPa SSW 25.9 km/h 27.4 km/h 76% 0 mm 100.0 W/m2
06:51 9.9 °C 5.7 °C 1016.5 hPa SSW 28.8 km/h 38.6 km/h 75% 0 mm 207.0 W/m2
06:57 10.1 °C 5.7 °C 1016.5 hPa SSW 32 km/h 35.4 km/h 74% 0 mm 239.0 W/m2
07:11 10.3 °C 5.1 °C 1016.8 hPa South 27.4 km/h 29 km/h 70% 0 mm 218.0 W/m2
07:38 10.4 °C 4.3 °C 1017.2 hPa SSW 35.2 km/h 38.6 km/h 66% 0 mm 118.0 W/m2
07:46 10.6 °C 4.3 °C 1016.8 hPa South 28.8 km/h 37 km/h 65% 0 mm 364.0 W/m2
07:55 11.2 °C 4.2 °C 1017.2 hPa SSW 27.4 km/h 33.8 km/h 62% 0 mm 388.0 W/m2
08:01 11.2 °C 4.2 °C 1017.2 hPa South 27.4 km/h 41.8 km/h 62% 0 mm 408.0 W/m2
08:06 11.2 °C 4 °C 1017.2 hPa South 20.9 km/h 38.6 km/h 61% 0 mm 427.0 W/m2
08:11 11.5 °C 4 °C 1017.2 hPa SSW 25.9 km/h 33.8 km/h 60% 0 mm 543.0 W/m2
08:17 11.9 °C 4.1 °C 1017.2 hPa South 35.2 km/h 41.8 km/h 59% 0 mm 643.0 W/m2
08:26 11.6 °C 3.9 °C 1017.2 hPa South 37 km/h 41.8 km/h 59% 0 mm 209.0 W/m2
08:48 11.9 °C 3.9 °C 1016.8 hPa South 22.7 km/h 37 km/h 58% 0 mm 550.0 W/m2
09:04 12.5 °C 4.2 °C 1017.5 hPa South 25.9 km/h 35.4 km/h 57% 0 mm 306.0 W/m2
09:44 13.2 °C 3.8 °C 1017.2 hPa SSW 28.8 km/h 40.2 km/h 53% 0 mm 874.0 W/m2
10:31 14.2 °C 3.3 °C 1017.2 hPa South 35.2 km/h 46.7 km/h 48% 0 mm 858.0 W/m2
10:46 14.4 °C 3.8 °C 1017.2 hPa SSW 33.8 km/h 45.1 km/h 49% 0 mm 875.0 W/m2
11:00 14.6 °C 3.4 °C 1016.8 hPa SSW 30.6 km/h 35.4 km/h 47% 0 mm 543.0 W/m2
11:11 14.9 °C 2.4 °C 1016.8 hPa SSW 35.2 km/h 48.3 km/h 43% 0 mm 997.0 W/m2
11:26 15.6 °C 2 °C 1017.2 hPa SSW 33.8 km/h 49.9 km/h 40% 0 mm 322.0 W/m2
12:33 16.8 °C 2 °C 1016.5 hPa South 35.2 km/h 48.3 km/h 37% 0 mm 1274.0 W/m2
13:18 17.2 °C 2.8 °C 1016.1 hPa South 32 km/h 41.8 km/h 38% 0 mm 1209.0 W/m2
14:03 18.4 °C 2.7 °C 1015.8 hPa SSW 27.4 km/h 38.6 km/h 35% 0 mm 480.0 W/m2
14:38 18.2 °C 2.5 °C 1015.8 hPa South 32 km/h 43.5 km/h 35% 0 mm 1042.0 W/m2
14:54 17.7 °C 2 °C 1015.5 hPa South 24.1 km/h 37 km/h 35% 0 mm 443.0 W/m2
15:49 18.7 °C 1.2 °C 1015.1 hPa SSW 24.1 km/h 43.5 km/h 31% 0 mm 809.0 W/m2
16:04 19 °C 1.5 °C 1015.1 hPa South 40.4 km/h 49.9 km/h 31% 0 mm 846.0 W/m2
16:19 19.1 °C 1.1 °C 1015.1 hPa South 30.6 km/h 40.2 km/h 30% 0 mm 566.0 W/m2
17:48 18.9 °C 0.5 °C 1015.8 hPa South 38.5 km/h 38.6 km/h 29% 0 mm 278.0 W/m2
18:02 18.8 °C 0.4 °C 1016.1 hPa SSE 27.4 km/h 35.4 km/h 29% 0 mm 223.0 W/m2
19:03 17.7 °C -0.1 °C 1016.5 hPa South 25.9 km/h 32.2 km/h 30% 0 mm 14.0 W/m2
19:49 16.9 °C -0.3 °C 1016.8 hPa South 20.9 km/h 27.4 km/h 31% 0 mm 0.0 W/m2
20:05 16.7 °C 0.3 °C 1016.8 hPa SSW 25.9 km/h 29 km/h 33% 0 mm 0.0 W/m2
20:54 15.4 °C 1.9 °C 1017.8 hPa SSW 25.9 km/h 29 km/h 40% 0 mm 0.0 W/m2
21:08 15.1 °C 3.3 °C 1018.5 hPa South 19.5 km/h 27.4 km/h 45% 0 mm 0.0 W/m2
21:49 14.2 °C 4.5 °C 1019.2 hPa South 20.9 km/h 25.7 km/h 52% 0 mm 0.0 W/m2
22:01 13.9 °C 4.7 °C 1019.5 hPa South 25.9 km/h 32.2 km/h 54% 0 mm 0.0 W/m2
22:10 13.8 °C 4.7 °C 1019.5 hPa South 20.9 km/h 27.4 km/h 54% 0 mm 0.0 W/m2
22:19 13.7 °C 4.8 °C 1019.5 hPa South 19.5 km/h 25.7 km/h 55% 0 mm 0.0 W/m2
22:24 13.6 °C 5 °C 1019.9 hPa SSW 17.7 km/h 25.7 km/h 56% 0 mm 0.0 W/m2
22:30 13.5 °C 4.9 °C 1019.9 hPa SSW 20.9 km/h 20.9 km/h 56% 0 mm 0.0 W/m2
22:36 13.4 °C 4.8 °C 1019.9 hPa SSW 20.9 km/h 22.5 km/h 56% 0 mm 0.0 W/m2
22:42 13.3 °C 5 °C 1019.9 hPa SSW 20.9 km/h 22.5 km/h 57% 0 mm 0.0 W/m2
22:53 13.2 °C 4.9 °C 1020.2 hPa SSW 13 km/h 22.5 km/h 57% 0 mm 0.0 W/m2
23:02 13.1 °C 5 °C 1020.2 hPa SSW 11.1 km/h 19.3 km/h 58% 0 mm 0.0 W/m2
23:10 12.9 °C 4.8 °C 1020.5 hPa SSW 14.3 km/h 20.9 km/h 58% 0 mm 0.0 W/m2
23:15 12.9 °C 4.8 °C 1020.2 hPa SSW 17.7 km/h 20.9 km/h 58% 0 mm 0.0 W/m2
23:20 12.8 °C 5 °C 1020.2 hPa SSW 20.9 km/h 25.7 km/h 59% 0 mm 0.0 W/m2
23:30 12.6 °C 4.8 °C 1020.2 hPa SSW 17.7 km/h 19.3 km/h 59% 0 mm 0.0 W/m2
23:36 12.6 °C 4.8 °C 1020.2 hPa SSW 14.3 km/h 20.9 km/h 59% 0 mm 0.0 W/m2
23:50 12.3 °C 4.8 °C 1020.2 hPa SSW 16.3 km/h 20.9 km/h 60% 0 mm 0.0 W/m2
Canyon Roadhouse, Fishriver Canyon, Namibia
Compliments of Weather Underground - 2.25 mb